Time;durP1;ratioP1;P1;durP2;ratioP2;P2;SDS_P1;SDS_P2;PMS_P1;PMS_P2;Temp;Humidity;BMP_temperature;BMP_pressure;BME280_temperature;BME280_humidity;BME280_pressure;Samples;Min_cycle;Max_cycle;Signal;HPM_P1;HPM_P2
2023/08/19 00:03:11;;;;;;;2.80;1.45;;;27.00;67.30;;;;;;7022864;28;20066;-79
2023/08/19 00:07:33;;;;;;;3.00;1.50;;;27.00;66.60;;;;;;7074788;27;21134;-78
2023/08/19 00:10:55;;;;;;;2.90;1.60;;;27.00;67.30;;;;;;7045306;28;20035;-77
2023/08/19 00:14:17;;;;;;;2.88;1.42;;;27.00;67.30;;;;;;7046442;28;20058;-77
2023/08/19 00:17:40;;;;;;;3.70;1.65;;;27.00;67.30;;;;;;7046561;28;20035;-79
2023/08/19 00:21:03;;;;;;;2.83;1.40;;;27.00;67.30;;;;;;7044943;28;20409;-78
2023/08/19 00:24:27;;;;;;;2.95;1.38;;;27.00;67.40;;;;;;7046205;28;20094;-78
2023/08/19 00:27:49;;;;;;;2.97;1.60;;;27.00;67.50;;;;;;7046023;28;20032;-78
2023/08/19 00:31:11;;;;;;;2.75;1.50;;;27.00;67.50;;;;;;7044659;28;20048;-78
2023/08/19 00:36:02;;;;;;;2.97;1.50;;;27.00;66.80;;;;;;7074921;27;20867;-78
2023/08/19 00:39:25;;;;;;;2.90;1.40;;;27.00;67.50;;;;;;7045624;28;20043;-77
2023/08/19 00:42:48;;;;;;;3.10;1.55;;;27.00;67.50;;;;;;7045100;28;20044;-78
2023/08/19 00:46:11;;;;;;;3.10;1.80;;;27.00;67.60;;;;;;7046308;28;20068;-78
2023/08/19 00:49:34;;;;;;;3.53;1.83;;;27.00;67.60;;;;;;7045192;28;20139;-77
2023/08/19 00:53:01;;;;;;;3.25;1.70;;;27.00;67.60;;;;;;7046162;28;20044;-77
2023/08/19 00:56:23;;;;;;;2.92;1.67;;;26.90;67.50;;;;;;7044964;28;20068;-78
2023/08/19 00:59:46;;;;;;;3.60;2.00;;;26.90;67.60;;;;;;7061501;27;20612;-77
2023/08/19 01:03:08;;;;;;;3.08;1.60;;;26.90;67.60;;;;;;7044438;28;20071;-78
2023/08/19 01:06:42;;;;;;;3.08;1.70;;;26.90;67.60;;;;;;7045714;28;20523;-77
2023/08/19 01:10:14;;;;;;;3.67;1.70;;;26.90;67.60;;;;;;7045723;28;20040;-78
2023/08/19 01:13:45;;;;;;;2.90;1.50;;;26.90;67.50;;;;;;7045765;28;20130;-78
2023/08/19 01:17:10;;;;;;;3.33;1.70;;;26.90;67.60;;;;;;7045533;28;20047;-77
2023/08/19 01:20:33;;;;;;;3.00;1.50;;;26.90;67.60;;;;;;7044205;28;20138;-77
2023/08/19 01:24:00;;;;;;;3.60;1.88;;;26.90;67.60;;;;;;7045352;28;20036;-78
2023/08/19 01:27:27;;;;;;;2.88;1.50;;;26.90;67.60;;;;;;7045357;28;20036;-77
2023/08/19 01:30:51;;;;;;;3.10;1.70;;;26.90;67.60;;;;;;7045075;28;20044;-78
2023/08/19 01:34:14;;;;;;;3.28;1.65;;;26.90;67.60;;;;;;7045009;28;20183;-78
2023/08/19 01:37:46;;;;;;;3.35;1.85;;;26.90;67.50;;;;;;7045091;28;21132;-78
2023/08/19 01:41:11;;;;;;;2.95;1.45;;;26.90;67.40;;;;;;7043781;28;20039;-78
2023/08/19 01:44:39;;;;;;;3.10;1.58;;;26.90;67.40;;;;;;7040339;28;20059;-78
2023/08/19 01:48:03;;;;;;;2.75;1.42;;;26.90;67.40;;;;;;7026233;28;20119;-78
2023/08/19 01:51:28;;;;;;;3.10;1.65;;;26.90;67.40;;;;;;7024799;28;20434;-78
2023/08/19 01:54:51;;;;;;;2.95;1.50;;;26.90;67.40;;;;;;7024780;28;20082;-79
2023/08/19 01:58:13;;;;;;;3.50;1.80;;;26.90;67.40;;;;;;7024293;28;20066;-79
2023/08/19 02:01:37;;;;;;;3.25;1.65;;;26.90;67.40;;;;;;7024385;28;20148;-78
2023/08/19 02:04:59;;;;;;;2.80;1.40;;;26.90;67.30;;;;;;7025393;28;20109;-77
2023/08/19 02:08:22;;;;;;;2.90;1.58;;;26.90;67.30;;;;;;7025501;28;20166;-78
2023/08/19 02:11:44;;;;;;;3.38;1.67;;;26.90;67.30;;;;;;7023831;28;20449;-77
2023/08/19 02:15:08;;;;;;;3.33;1.70;;;26.90;67.30;;;;;;7024275;28;20142;-78
2023/08/19 02:18:32;;;;;;;3.47;1.60;;;26.90;67.50;;;;;;7040866;28;20398;-78
2023/08/19 02:21:54;;;;;;;2.83;1.40;;;26.90;67.30;;;;;;7023841;28;20048;-79
2023/08/19 02:25:17;;;;;;;3.22;1.63;;;26.90;67.40;;;;;;7025170;28;20047;-78
2023/08/19 02:28:39;;;;;;;3.13;1.75;;;26.90;67.40;;;;;;7024780;28;20074;-78
2023/08/19 02:32:02;;;;;;;2.97;1.58;;;26.90;67.40;;;;;;7024840;28;20040;-77
2023/08/19 02:35:26;;;;;;;2.85;1.48;;;26.90;67.40;;;;;;7024758;28;20146;-77
2023/08/19 02:38:48;;;;;;;3.30;1.77;;;26.90;67.40;;;;;;7024578;28;20032;-77
2023/08/19 02:42:15;;;;;;;3.28;1.85;;;26.90;67.40;;;;;;7024218;28;20093;-77
2023/08/19 02:45:41;;;;;;;4.18;1.55;;;26.90;67.30;;;;;;7023163;28;20495;-80
2023/08/19 02:49:04;;;;;;;2.95;1.70;;;26.90;67.40;;;;;;7024043;28;20036;-78
2023/08/19 02:52:27;;;;;;;4.32;1.83;;;26.80;67.30;;;;;;7024551;28;20041;-78
2023/08/19 02:55:53;;;;;;;3.53;1.95;;;26.90;67.30;;;;;;7022808;28;20112;-78
2023/08/19 02:59:15;;;;;;;3.00;1.73;;;26.90;67.30;;;;;;7023372;28;20040;-78
2023/08/19 03:02:37;;;;;;;3.03;1.55;;;26.90;67.30;;;;;;7039732;28;20040;-78
2023/08/19 03:06:00;;;;;;;3.53;1.77;;;26.90;67.40;;;;;;7022787;28;20082;-79
2023/08/19 03:10:14;;;;;;;3.20;1.77;;;26.90;66.80;;;;;;7063227;27;20790;-77
2023/08/19 03:15:23;;;;;;;5.30;1.67;;;26.80;66.80;;;;;;7074991;27;20940;-78
2023/08/19 03:18:45;;;;;;;3.42;2.00;;;26.80;67.30;;;;;;7028403;28;20044;-78
2023/08/19 03:22:08;;;;;;;3.58;1.85;;;26.80;68.00;;;;;;7000933;28;20059;-78
2023/08/19 03:25:30;;;;;;;3.35;1.92;;;26.80;67.40;;;;;;7000205;28;20144;-78
2023/08/19 03:28:53;;;;;;;3.17;2.05;;;26.80;67.40;;;;;;7000044;28;20044;-78
2023/08/19 03:32:17;;;;;;;3.55;1.92;;;26.80;67.50;;;;;;7000195;28;20117;-76
2023/08/19 03:35:40;;;;;;;3.10;1.70;;;26.80;67.50;;;;;;7018256;28;20068;-78
2023/08/19 03:39:04;;;;;;;3.50;1.98;;;26.80;67.50;;;;;;6999150;28;20093;-78
2023/08/19 03:42:27;;;;;;;4.00;2.17;;;26.80;67.50;;;;;;7017411;28;20044;-77
2023/08/19 03:45:49;;;;;;;3.65;2.20;;;26.80;67.60;;;;;;6999692;28;20453;-79
2023/08/19 03:49:13;;;;;;;6.32;2.50;;;26.80;67.60;;;;;;7000341;28;20036;-80
2023/08/19 03:52:35;;;;;;;5.47;2.58;;;26.80;67.60;;;;;;7017919;28;20036;-77
2023/08/19 03:55:58;;;;;;;8.90;2.47;;;26.80;67.80;;;;;;7017208;28;20089;-78
2023/08/19 04:01:09;;;;;;;5.60;2.28;;;26.80;67.20;;;;;;6951268;27;1400193;-81
2023/08/19 04:04:37;;;;;;;6.32;2.78;;;26.80;67.70;;;;;;6936086;28;20509;-77
2023/08/19 04:08:00;;;;;;;8.73;3.10;;;26.80;66.80;;;;;;6928131;28;20045;-80
2023/08/19 04:11:23;;;;;;;10.15;3.20;;;26.80;65.90;;;;;;6945591;28;20256;-80
2023/08/19 04:14:47;;;;;;;5.35;3.05;;;26.80;65.00;;;;;;6962835;28;20029;-76
2023/08/19 04:18:11;;;;;;;4.97;2.90;;;26.80;64.50;;;;;;6956865;28;20094;-78
2023/08/19 04:21:34;;;;;;;5.15;3.42;;;26.80;64.20;;;;;;6942572;28;20112;-77
2023/08/19 04:25:39;;;;;;;5.20;3.22;;;26.70;64.20;;;;;;7046627;27;20738;-78
2023/08/19 04:29:02;;;;;;;5.05;3.00;;;26.60;63.50;;;;;;7028248;28;20044;-78
2023/08/19 04:32:27;;;;;;;5.18;3.28;;;26.60;63.10;;;;;;7036561;28;20394;-79
2023/08/19 04:35:50;;;;;;;4.55;2.80;;;26.60;62.90;;;;;;7045395;28;20048;-79
2023/08/19 04:39:12;;;;;;;8.95;3.50;;;26.50;62.70;;;;;;7028093;28;20075;-83
2023/08/19 04:42:37;;;;;;;6.60;3.95;;;26.50;62.60;;;;;;7032568;28;20135;-81
2023/08/19 04:45:59;;;;;;;6.30;5.07;;;26.40;60.80;;;;;;7030611;28;20091;-82
2023/08/19 04:49:21;;;;;;;5.63;4.50;;;26.30;59.80;;;;;;7032241;28;20973;-80
2023/08/19 04:52:44;;;;;;;7.28;4.78;;;26.20;59.00;;;;;;7021927;28;20036;-80
2023/08/19 04:56:07;;;;;;;6.38;5.28;;;26.00;58.60;;;;;;7019018;28;20048;-79
2023/08/19 05:01:17;;;;;;;6.28;4.80;;;25.80;60.00;;;;;;7063365;27;21166;-81
2023/08/19 05:06:29;;;;;;;7.78;5.28;;;25.60;59.70;;;;;;7064730;27;20986;-78
2023/08/19 05:09:53;;;;;;;;;;;25.40;58.90;;;;;;7019949;28;20044;-79
2023/08/19 05:13:18;;;;;;;8.07;4.90;;;25.30;60.60;;;;;;7032596;28;20275;-82
2023/08/19 05:16:42;;;;;;;6.97;5.47;;;25.10;59.20;;;;;;7017886;28;20158;-85
2023/08/19 05:20:07;;;;;;;7.15;4.85;;;24.90;59.40;;;;;;7004913;28;20044;-81
2023/08/19 05:23:31;;;;;;;6.05;4.57;;;24.80;59.70;;;;;;7028184;28;20041;-81
2023/08/19 05:26:53;;;;;;;6.97;5.43;;;24.70;60.00;;;;;;7008223;28;20188;-85
2023/08/19 05:30:15;;;;;;;6.93;5.47;;;24.60;60.30;;;;;;7003012;28;20062;-84
2023/08/19 05:33:38;;;;;;;7.35;5.80;;;24.50;60.50;;;;;;7003694;28;20051;-86
2023/08/19 05:37:01;;;;;;;5.70;5.10;;;24.40;60.80;;;;;;7023259;28;20044;-86
2023/08/19 05:40:24;;;;;;;6.32;4.90;;;24.30;61.10;;;;;;7042128;28;20101;-87
2023/08/19 05:43:47;;;;;;;6.90;5.53;;;24.30;61.40;;;;;;7015839;28;20048;-88
2023/08/19 05:47:09;;;;;;;6.47;5.32;;;24.30;61.60;;;;;;7022865;28;20055;-87
2023/08/19 06:01:24;;;;;;;7.88;6.05;;;24.20;62.20;;;;;;6326721;26;20026;-81
2023/08/19 06:09:04;;;;;;;8.60;5.85;;;24.20;62.70;;;;;;5863051;26;20073;-79
2023/08/19 06:16:28;;;;;;;9.23;7.13;;;24.20;63.30;;;;;;6989543;28;20069;-82
2023/08/19 06:39:02;;;;;;;5.72;4.88;;;24.00;68.00;;;;;;7096214;27;1411035;-94
2023/08/19 06:42:26;;;;;;;7.78;4.97;;;24.30;66.20;;;;;;7115641;27;20023;-95
2023/08/19 06:45:53;;;;;;;7.57;5.40;;;24.30;65.70;;;;;;7112058;27;20039;-95
2023/08/19 06:49:16;;;;;;;6.63;5.17;;;24.30;65.80;;;;;;7090971;28;20083;-94
2023/08/19 06:52:40;;;;;;;6.55;5.18;;;24.20;65.80;;;;;;7081475;28;20057;-95
2023/08/19 06:56:15;;;;;;;6.28;4.95;;;24.20;66.10;;;;;;7067300;28;20043;-94
2023/08/19 06:59:54;;;;;;;6.53;5.45;;;24.20;66.20;;;;;;7079506;28;20041;-94
2023/08/19 07:03:25;;;;;;;7.22;5.32;;;24.20;66.30;;;;;;7072641;28;20069;-94
2023/08/19 07:06:50;;;;;;;7.25;6.22;;;24.20;66.70;;;;;;7067331;28;20050;-95
2023/08/19 07:10:17;;;;;;;5.82;5.22;;;24.20;66.90;;;;;;7092390;28;20040;-95
2023/08/19 07:16:06;;;;;;;8.13;5.87;;;24.20;65.70;;;;;;7012682;27;4115902;-95
2023/08/19 07:19:36;;;;;;;7.28;6.47;;;24.40;66.70;;;;;;7101159;27;20015;-95
2023/08/19 07:23:05;;;;;;;7.72;6.82;;;24.40;67.40;;;;;;7110590;27;20052;-94
2023/08/19 07:26:30;;;;;;;8.25;7.30;;;24.50;67.30;;;;;;7108554;27;20031;-93
2023/08/19 07:29:57;;;;;;;8.32;7.00;;;24.70;66.50;;;;;;7113098;27;20088;-94
2023/08/19 07:33:25;;;;;;;6.50;5.63;;;24.80;66.60;;;;;;7101320;27;20023;-94
2023/08/19 07:36:52;;;;;;;6.72;5.63;;;24.90;65.90;;;;;;7115836;27;20051;-93
2023/08/19 07:40:19;;;;;;;6.70;5.90;;;25.10;66.10;;;;;;7107433;27;20042;-94
2023/08/19 07:43:49;;;;;;;6.93;5.50;;;25.20;66.00;;;;;;7105122;27;20043;-92
2023/08/19 07:48:54;;;;;;;7.22;6.25;;;25.50;65.10;;;;;;7006683;27;3087788;-95
2023/08/19 07:52:19;;;;;;;6.47;5.53;;;25.70;65.10;;;;;;7045176;28;20093;-91
2023/08/19 07:55:44;;;;;;;7.03;6.20;;;25.90;65.60;;;;;;7072059;28;20050;-94
2023/08/19 07:59:10;;;;;;;7.88;6.78;;;26.00;65.50;;;;;;7079440;28;20044;-94
2023/08/19 08:02:35;;;;;;;8.20;7.35;;;26.20;64.40;;;;;;7069059;28;20089;-95
2023/08/19 08:06:02;;;;;;;6.72;6.03;;;26.40;62.90;;;;;;6915027;28;20071;-95
2023/08/19 08:09:35;;;;;;;8.20;7.25;;;26.60;63.60;;;;;;7011947;28;20047;-95
2023/08/19 08:13:04;;;;;;;10.80;8.30;;;26.80;63.00;;;;;;6929823;28;20060;-92
2023/08/19 08:16:28;;;;;;;7.82;6.65;;;26.90;62.20;;;;;;6915491;28;20052;-94
2023/08/19 08:19:52;;;;;;;8.02;7.20;;;27.10;62.50;;;;;;6935924;28;20048;-91
2023/08/19 08:23:22;;;;;;;8.32;7.38;;;27.30;62.00;;;;;;6995146;28;20055;-93
2023/08/19 08:26:45;;;;;;;6.53;5.82;;;27.50;61.20;;;;;;6996452;28;20098;-92
2023/08/19 08:30:09;;;;;;;7.72;6.63;;;27.60;61.60;;;;;;6970036;28;267961;-94
2023/08/19 08:33:32;;;;;;;8.38;7.47;;;27.80;61.10;;;;;;7012777;28;20032;-95
2023/08/19 08:36:54;;;;;;;6.90;6.20;;;28.00;60.20;;;;;;7014016;28;20045;-94
2023/08/19 08:40:22;;;;;;;7.60;6.32;;;28.20;60.30;;;;;;7007105;28;20040;-93
2023/08/19 08:43:49;;;;;;;7.88;7.05;;;28.50;59.90;;;;;;7000327;28;20049;-94
2023/08/19 08:49:12;;;;;;;6.95;6.00;;;28.80;59.70;;;;;;7054653;27;2907350;-92
2023/08/19 08:54:24;;;;;;;8.00;6.22;;;29.20;59.20;;;;;;7054970;27;2791738;-93
2023/08/19 08:57:46;;;;;;;6.75;6.10;;;29.40;58.50;;;;;;7096572;27;20054;-92
2023/08/19 09:01:13;;;;;;;6.20;5.18;;;29.60;57.30;;;;;;7121072;27;20051;-94
2023/08/19 09:04:41;;;;;;;7.25;6.10;;;29.90;57.80;;;;;;7047454;27;20047;-92
2023/08/19 09:08:08;;;;;;;8.02;6.15;;;30.20;57.60;;;;;;7096652;27;20038;-93
2023/08/19 09:11:36;;;;;;;8.00;7.20;;;30.50;57.60;;;;;;7077714;27;20056;-90
2023/08/19 09:15:03;;;;;;;6.65;6.00;;;30.70;56.70;;;;;;7050134;28;20081;-90
2023/08/19 09:18:28;;;;;;;6.95;6.00;;;31.00;56.50;;;;;;7085807;27;20050;-90
2023/08/19 09:21:50;;;;;;;;;;;31.30;56.50;;;;;;7079158;28;20652;-90
2023/08/19 09:25:15;;;;;;;7.00;6.20;;;31.50;58.20;;;;;;7064766;28;20280;-91
2023/08/19 09:28:42;;;;;;;6.75;6.05;;;31.70;55.90;;;;;;7059640;28;20059;-92
2023/08/19 09:32:05;;;;;;;6.93;6.18;;;32.00;55.30;;;;;;7068298;28;20052;-91
2023/08/19 09:35:36;;;;;;;10.05;6.95;;;32.20;55.30;;;;;;7066595;28;20106;-92
2023/08/19 09:39:00;;;;;;;9.98;6.03;;;32.40;54.60;;;;;;7068028;28;20023;-91
2023/08/19 09:42:23;;;;;;;8.38;6.47;;;32.70;54.20;;;;;;7089005;28;20038;-91
2023/08/19 09:45:51;;;;;;;6.93;5.72;;;32.90;53.70;;;;;;7069958;28;20039;-91
2023/08/19 09:49:22;;;;;;;7.78;7.00;;;33.10;54.00;;;;;;7077676;27;20100;-91
2023/08/19 09:52:56;;;;;;;7.20;6.43;;;33.30;53.40;;;;;;7066837;28;20056;-91
2023/08/19 09:56:26;;;;;;;7.13;6.13;;;33.50;53.10;;;;;;7076656;28;20040;-92
2023/08/19 09:59:48;;;;;;;7.35;6.43;;;33.70;52.20;;;;;;7067051;28;20099;-92
2023/08/19 10:03:18;;;;;;;6.75;6.05;;;33.90;50.80;;;;;;7057846;28;20024;-91
2023/08/19 10:06:49;;;;;;;7.10;6.30;;;34.10;49.90;;;;;;7061443;28;20074;-92
2023/08/19 10:10:14;;;;;;;7.35;6.18;;;34.20;50.10;;;;;;7035328;28;20063;-93
2023/08/19 10:13:38;;;;;;;8.68;6.45;;;34.30;50.50;;;;;;7044493;28;20140;-91
2023/08/19 10:20:39;;;;;;;7.85;5.57;;;34.50;49.10;;;;;;7089150;27;1426587;-93
2023/08/19 10:24:03;;;;;;;7.78;6.00;;;34.70;49.70;;;;;;7091349;28;20035;-93
2023/08/19 10:27:26;;;;;;;6.10;5.25;;;34.90;48.00;;;;;;7107887;27;20048;-93
2023/08/19 10:31:06;;;;;;;6.82;5.40;;;35.00;48.70;;;;;;7107716;27;20031;-94
2023/08/19 10:34:28;;;;;;;5.93;5.32;;;35.10;47.40;;;;;;7110331;28;20020;-93
2023/08/19 10:37:53;;;;;;;5.30;4.53;;;35.30;46.90;;;;;;7109247;28;20424;-92
2023/08/19 10:41:33;;;;;;;5.88;4.78;;;35.40;47.00;;;;;;7088234;27;20031;-93
2023/08/19 10:44:55;;;;;;;5.32;4.30;;;35.50;45.30;;;;;;7087339;27;20027;-91
2023/08/19 10:48:32;;;;;;;5.32;4.47;;;35.70;46.30;;;;;;7083612;28;20023;-94
2023/08/19 10:52:00;;;;;;;6.10;5.07;;;35.90;47.90;;;;;;7089847;28;20023;-94
2023/08/19 10:55:24;;;;;;;6.55;5.55;;;36.10;46.30;;;;;;7086252;28;20058;-93
2023/08/19 10:58:50;;;;;;;5.85;5.18;;;36.30;45.70;;;;;;7075416;28;20037;-94
2023/08/19 11:02:13;;;;;;;5.95;4.70;;;36.60;44.40;;;;;;7076471;28;20023;-94
2023/08/19 11:05:36;;;;;;;5.75;4.68;;;36.70;44.60;;;;;;7077648;28;20019;-94
2023/08/19 11:09:00;;;;;;;6.40;4.13;;;36.90;44.80;;;;;;7084540;27;20056;-93
2023/08/19 11:12:26;;;;;;;6.18;4.70;;;37.00;44.70;;;;;;7073215;28;20050;-93
2023/08/19 11:15:49;;;;;;;6.60;5.05;;;37.20;44.00;;;;;;7085343;28;20023;-93
2023/08/19 11:19:12;;;;;;;6.15;4.85;;;37.30;44.40;;;;;;7071634;28;20050;-94
2023/08/19 11:22:42;;;;;;;6.13;5.35;;;37.50;44.60;;;;;;7080735;28;20031;-94
2023/08/19 11:26:05;;;;;;;6.13;4.50;;;37.60;42.90;;;;;;7063995;28;20032;-94
2023/08/19 11:29:30;;;;;;;4.65;3.75;;;37.70;42.10;;;;;;7075132;28;20031;-93
2023/08/19 11:32:52;;;;;;;5.45;4.57;;;37.90;43.00;;;;;;6907816;28;20057;-94
2023/08/19 11:36:15;;;;;;;6.25;4.43;;;38.10;41.60;;;;;;7016953;28;20024;-93
2023/08/19 11:39:37;;;;;;;6.78;4.10;;;38.20;40.70;;;;;;7034049;28;20030;-93
2023/08/19 11:43:07;;;;;;;8.13;5.15;;;38.40;41.20;;;;;;7016834;28;20025;-94
2023/08/19 11:46:35;;;;;;;8.50;4.90;;;38.40;40.20;;;;;;7016808;28;20024;-90
2023/08/19 11:49:58;;;;;;;5.15;4.05;;;38.50;41.20;;;;;;7033540;28;20021;-93
2023/08/19 11:53:24;;;;;;;6.05;4.03;;;38.60;40.90;;;;;;7033576;28;20041;-92
2023/08/19 11:56:49;;;;;;;4.60;3.60;;;38.70;40.40;;;;;;7016248;28;20028;-93
2023/08/19 12:00:16;;;;;;;5.70;4.80;;;38.70;41.10;;;;;;7033181;28;20043;-92
2023/08/19 12:03:45;;;;;;;5.57;3.95;;;38.80;40.10;;;;;;7016135;28;20024;-92
2023/08/19 12:07:12;;;;;;;5.93;4.05;;;38.90;40.30;;;;;;7032872;28;20040;-93
2023/08/19 12:10:43;;;;;;;6.35;5.18;;;39.00;39.90;;;;;;7032188;28;20028;-94
2023/08/19 12:14:07;;;;;;;6.13;4.50;;;39.00;37.80;;;;;;7015408;28;20028;-93
2023/08/19 12:17:30;;;;;;;5.85;4.15;;;39.10;39.20;;;;;;7015715;28;20038;-94
2023/08/19 12:20:54;;;;;;;5.38;4.05;;;39.20;39.50;;;;;;7015929;28;20055;-93
2023/08/19 12:24:17;;;;;;;5.13;4.03;;;39.30;39.70;;;;;;7015608;28;20063;-94
2023/08/19 12:27:40;;;;;;;6.00;4.00;;;39.50;39.60;;;;;;7030877;28;20027;-91
2023/08/19 12:31:03;;;;;;;5.03;4.03;;;39.70;39.40;;;;;;7014942;28;20058;-95
2023/08/19 12:34:44;;;;;;;5.63;4.03;;;39.90;39.50;;;;;;7015181;28;20455;-92
2023/08/19 12:38:09;;;;;;;5.95;4.18;;;40.00;39.20;;;;;;7021915;28;20039;-93
2023/08/19 12:41:37;;;;;;;5.78;4.68;;;40.30;38.80;;;;;;7029663;28;20093;-93
2023/08/19 12:45:00;;;;;;;7.10;5.30;;;40.40;37.80;;;;;;7014396;28;20032;-93
2023/08/19 12:48:24;;;;;;;;;;;40.50;37.70;;;;;;7032084;28;20034;-92
2023/08/19 12:51:48;;;;;;;5.97;4.00;;;40.70;39.40;;;;;;7010229;28;19966;-92
2023/08/19 12:55:25;;;;;;;7.25;4.13;;;40.90;37.00;;;;;;7003603;28;20024;-93
2023/08/19 12:58:54;;;;;;;8.25;4.05;;;41.10;37.50;;;;;;7009426;28;20063;-93
2023/08/19 13:02:17;;;;;;;5.22;3.78;;;41.30;36.90;;;;;;6988844;28;20032;-94
2023/08/19 13:05:51;;;;;;;4.60;3.60;;;41.50;37.20;;;;;;7002363;28;20040;-96
2023/08/19 13:09:23;;;;;;;4.25;3.45;;;41.70;37.10;;;;;;7003570;28;20036;-95
2023/08/19 13:12:56;;;;;;;6.65;4.15;;;42.00;36.70;;;;;;7006890;28;20071;-96
2023/08/19 13:16:20;;;;;;;5.05;3.92;;;42.20;35.50;;;;;;7010188;28;20095;-96
2023/08/19 13:19:53;;;;;;;5.50;4.15;;;42.40;35.80;;;;;;6982194;28;20084;-96
2023/08/19 13:23:23;;;;;;;4.88;3.97;;;42.50;33.70;;;;;;7235803;23;20035;-96
2023/08/19 13:26:47;;;;;;;5.07;3.90;;;42.40;34.10;;;;;;6883263;28;20035;-95
2023/08/19 13:30:28;;;;;;;8.45;6.38;;;42.40;34.00;;;;;;7089111;27;1654286;-95
2023/08/19 13:33:54;;;;;;;5.07;4.10;;;42.40;34.00;;;;;;7115356;27;20030;-94
2023/08/19 13:37:17;;;;;;;5.50;3.85;;;42.40;33.50;;;;;;7109457;27;20031;-96
2023/08/19 13:40:40;;;;;;;;;;;42.40;33.80;;;;;;7117073;27;20060;-95
2023/08/19 13:44:03;;;;;;;5.05;3.72;;;42.40;35.40;;;;;;7112235;27;19911;-96
2023/08/19 13:47:29;;;;;;;4.93;3.85;;;42.60;34.50;;;;;;7104425;22;20109;-94
2023/08/19 13:51:02;;;;;;;5.72;3.63;;;42.80;33.50;;;;;;6994763;28;20037;-93
2023/08/19 14:52:48;;;;;;;4.40;3.25;;;45.50;31.10;;;;;;8317579;22;9707387;-96
2023/08/19 15:01:47;;;;;;;4.55;3.15;;;45.50;31.60;;;;;;8628442;22;20020;-96
2023/08/19 15:10:41;;;;;;;4.35;3.25;;;45.70;31.70;;;;;;8573620;23;19900;-95
2023/08/19 15:15:08;;;;;;;4.10;3.10;;;45.80;31.40;;;;;;8638313;23;20016;-95
2023/08/19 15:55:16;;;;;;;4.78;2.65;;;46.70;29.70;;;;;;8358768;23;20005;-95
2023/08/19 16:54:45;;;;;;;6.13;4.45;;;46.10;29.80;;;;;;8287861;23;20024;-96
2023/08/19 16:58:20;;;;;;;4.82;3.85;;;45.80;29.90;;;;;;8354656;23;20069;-94
2023/08/19 17:01:52;;;;;;;4.68;3.30;;;45.20;29.90;;;;;;8555376;23;20010;-94
2023/08/19 17:05:19;;;;;;;5.75;3.95;;;44.60;30.00;;;;;;8553812;23;20010;-95
2023/08/19 17:08:55;;;;;;;5.57;4.13;;;43.80;30.40;;;;;;8529046;23;20029;-95
2023/08/19 17:12:26;;;;;;;6.35;4.50;;;43.10;31.50;;;;;;8554306;23;20014;-95
2023/08/19 17:16:00;;;;;;;4.93;4.15;;;42.40;32.30;;;;;;8551698;23;20052;-95
2023/08/19 17:48:46;;;;;;;7.30;4.80;;;34.50;40.40;;;;;;8492820;23;20005;-96
2023/08/19 17:52:24;;;;;;;5.45;3.90;;;33.60;40.60;;;;;;8555910;23;20017;-96
2023/08/19 17:55:59;;;;;;;5.70;4.28;;;32.70;41.30;;;;;;8531942;23;20020;-95
2023/08/19 18:00:18;;;;;;;5.97;5.18;;;32.00;42.30;;;;;;8505248;23;20108;-95
2023/08/19 18:04:42;;;;;;;7.38;4.78;;;31.20;44.60;;;;;;8447624;23;20032;-95
2023/08/19 18:28:57;;;;;;;7.80;4.82;;;27.90;48.70;;;;;;8292456;24;20012;-96
